Terminal Aerodrome Forecast
Issued by NWS El Paso, TX

Home | Current Version | Previous Version | Text Only | Print | Product List | Glossary On
Versions: 1 2 3 4 5 6 7 8 9 10 11 12 13 14 15 16 17 18 19 20
000
FTUS44 KEPZ 200500
TAFELP
TAF
KELP 200530Z 2006/2106 VRB04KT P6SM SCT060 SCT250
      TEMPO 2010/2014 3SM BR FEW008
     FM201800 VRB05KT P6SM FEW070 SCT250
     FM202200 10008KT P6SM VCTS SCT060CB SCT250
     FM210400 12007KT P6SM FEW060 SCT100=

USA.gov is the U.S. government's official web portal to all federal, state and local government web resources and services.